sensor_id;sensor_type;location;lat;lon;timestamp;P1;durP1;ratioP1;P2;durP2;ratioP2
62554;SDS011;48610;52.144;8.624;2023-11-19T00:01:39;16.33;;;6.25;;
62554;SDS011;48610;52.144;8.624;2023-11-19T00:04:40;12.27;;;6.88;;
62554;SDS011;48610;52.144;8.624;2023-11-19T00:07:41;16.13;;;7.63;;
62554;SDS011;48610;52.144;8.624;2023-11-19T00:10:41;12.93;;;6.90;;
62554;SDS011;48610;52.144;8.624;2023-11-19T00:13:42;12.95;;;7.38;;
62554;SDS011;48610;52.144;8.624;2023-11-19T00:16:42;11.80;;;7.40;;
62554;SDS011;48610;52.144;8.624;2023-11-19T00:19:43;14.48;;;7.45;;
62554;SDS011;48610;52.144;8.624;2023-11-19T00:22:43;15.68;;;7.45;;
62554;SDS011;48610;52.144;8.624;2023-11-19T00:25:46;17.10;;;7.18;;
62554;SDS011;48610;52.144;8.624;2023-11-19T00:28:47;10.38;;;6.72;;
62554;SDS011;48610;52.144;8.624;2023-11-19T00:31:48;8.18;;;5.00;;
62554;SDS011;48610;52.144;8.624;2023-11-19T00:34:49;13.02;;;5.25;;
62554;SDS011;48610;52.144;8.624;2023-11-19T00:37:50;8.02;;;4.75;;
62554;SDS011;48610;52.144;8.624;2023-11-19T00:40:51;7.40;;;4.10;;
62554;SDS011;48610;52.144;8.624;2023-11-19T00:43:51;10.57;;;4.65;;
62554;SDS011;48610;52.144;8.624;2023-11-19T00:46:52;6.35;;;4.03;;
62554;SDS011;48610;52.144;8.624;2023-11-19T00:49:53;7.28;;;4.45;;
62554;SDS011;48610;52.144;8.624;2023-11-19T00:52:53;9.65;;;4.70;;
62554;SDS011;48610;52.144;8.624;2023-11-19T00:55:54;6.50;;;4.10;;
62554;SDS011;48610;52.144;8.624;2023-11-19T00:58:55;7.30;;;4.32;;
62554;SDS011;48610;52.144;8.624;2023-11-19T01:01:56;9.93;;;3.90;;
62554;SDS011;48610;52.144;8.624;2023-11-19T01:04:56;7.10;;;4.60;;
62554;SDS011;48610;52.144;8.624;2023-11-19T01:07:57;6.57;;;4.20;;
62554;SDS011;48610;52.144;8.624;2023-11-19T01:10:57;7.10;;;4.43;;
62554;SDS011;48610;52.144;8.624;2023-11-19T01:13:58;8.10;;;4.85;;
62554;SDS011;48610;52.144;8.624;2023-11-19T01:16:58;8.88;;;4.78;;
62554;SDS011;48610;52.144;8.624;2023-11-19T01:19:59;7.85;;;4.45;;
62554;SDS011;48610;52.144;8.624;2023-11-19T01:22:59;9.73;;;4.50;;
62554;SDS011;48610;52.144;8.624;2023-11-19T01:26:00;10.13;;;4.07;;
62554;SDS011;48610;52.144;8.624;2023-11-19T01:29:01;6.93;;;3.88;;
62554;SDS011;48610;52.144;8.624;2023-11-19T01:32:01;9.52;;;3.97;;
62554;SDS011;48610;52.144;8.624;2023-11-19T01:35:03;5.70;;;3.78;;
62554;SDS011;48610;52.144;8.624;2023-11-19T01:38:04;7.03;;;4.65;;
62554;SDS011;48610;52.144;8.624;2023-11-19T01:41:05;7.78;;;3.75;;
62554;SDS011;48610;52.144;8.624;2023-11-19T01:44:05;8.18;;;3.83;;
62554;SDS011;48610;52.144;8.624;2023-11-19T01:47:06;8.57;;;4.53;;
62554;SDS011;48610;52.144;8.624;2023-11-19T01:50:08;7.50;;;4.15;;
62554;SDS011;48610;52.144;8.624;2023-11-19T01:53:09;13.75;;;5.22;;
62554;SDS011;48610;52.144;8.624;2023-11-19T01:56:10;9.70;;;5.93;;
62554;SDS011;48610;52.144;8.624;2023-11-19T01:59:13;8.32;;;5.40;;
62554;SDS011;48610;52.144;8.624;2023-11-19T02:02:14;12.43;;;6.78;;
62554;SDS011;48610;52.144;8.624;2023-11-19T02:05:15;10.80;;;7.13;;
62554;SDS011;48610;52.144;8.624;2023-11-19T02:08:16;7.57;;;5.30;;
62554;SDS011;48610;52.144;8.624;2023-11-19T02:11:18;9.50;;;5.82;;
62554;SDS011;48610;52.144;8.624;2023-11-19T02:14:18;10.05;;;6.43;;
62554;SDS011;48610;52.144;8.624;2023-11-19T02:17:28;9.02;;;6.53;;
62554;SDS011;48610;52.144;8.624;2023-11-19T02:20:31;9.55;;;5.88;;
62554;SDS011;48610;52.144;8.624;2023-11-19T02:23:32;9.13;;;5.70;;
62554;SDS011;48610;52.144;8.624;2023-11-19T02:27:07;8.63;;;5.85;;
62554;SDS011;48610;52.144;8.624;2023-11-19T02:30:02;8.93;;;6.55;;
62554;SDS011;48610;52.144;8.624;2023-11-19T02:33:06;11.48;;;6.03;;
62554;SDS011;48610;52.144;8.624;2023-11-19T02:36:07;9.00;;;5.55;;
62554;SDS011;48610;52.144;8.624;2023-11-19T02:39:08;7.95;;;5.57;;
62554;SDS011;48610;52.144;8.624;2023-11-19T02:42:11;20.02;;;6.43;;
62554;SDS011;48610;52.144;8.624;2023-11-19T02:45:13;11.85;;;6.70;;
62554;SDS011;48610;52.144;8.624;2023-11-19T02:48:14;13.45;;;7.28;;
62554;SDS011;48610;52.144;8.624;2023-11-19T02:51:16;10.60;;;6.00;;
62554;SDS011;48610;52.144;8.624;2023-11-19T02:54:18;11.77;;;7.03;;
62554;SDS011;48610;52.144;8.624;2023-11-19T02:57:21;12.13;;;7.78;;
62554;SDS011;48610;52.144;8.624;2023-11-19T03:00:22;12.27;;;7.43;;
62554;SDS011;48610;52.144;8.624;2023-11-19T03:03:24;15.23;;;9.35;;
62554;SDS011;48610;52.144;8.624;2023-11-19T03:06:30;15.30;;;9.65;;
62554;SDS011;48610;52.144;8.624;2023-11-19T03:09:31;19.38;;;11.13;;
62554;SDS011;48610;52.144;8.624;2023-11-19T03:12:33;21.85;;;10.77;;
62554;SDS011;48610;52.144;8.624;2023-11-19T03:15:34;15.48;;;9.93;;
62554;SDS011;48610;52.144;8.624;2023-11-19T03:18:34;24.55;;;13.27;;
62554;SDS011;48610;52.144;8.624;2023-11-19T03:21:35;25.38;;;11.02;;
62554;SDS011;48610;52.144;8.624;2023-11-19T03:24:36;23.05;;;11.52;;
62554;SDS011;48610;52.144;8.624;2023-11-19T03:27:37;27.75;;;11.77;;
62554;SDS011;48610;52.144;8.624;2023-11-19T03:30:44;23.15;;;12.02;;
62554;SDS011;48610;52.144;8.624;2023-11-19T03:33:44;24.33;;;11.52;;
62554;SDS011;48610;52.144;8.624;2023-11-19T03:36:45;24.02;;;12.13;;
62554;SDS011;48610;52.144;8.624;2023-11-19T03:39:45;26.30;;;11.38;;
62554;SDS011;48610;52.144;8.624;2023-11-19T03:42:46;25.02;;;12.40;;
62554;SDS011;48610;52.144;8.624;2023-11-19T03:45:47;23.85;;;12.15;;
62554;SDS011;48610;52.144;8.624;2023-11-19T03:48:48;22.75;;;11.85;;
62554;SDS011;48610;52.144;8.624;2023-11-19T03:51:50;26.02;;;13.60;;
62554;SDS011;48610;52.144;8.624;2023-11-19T03:54:50;26.52;;;12.43;;
62554;SDS011;48610;52.144;8.624;2023-11-19T03:57:51;22.90;;;11.13;;
62554;SDS011;48610;52.144;8.624;2023-11-19T04:00:51;18.98;;;11.45;;
62554;SDS011;48610;52.144;8.624;2023-11-19T04:03:52;21.00;;;11.07;;
62554;SDS011;48610;52.144;8.624;2023-11-19T04:06:53;28.88;;;13.23;;
62554;SDS011;48610;52.144;8.624;2023-11-19T04:09:54;21.58;;;13.05;;
62554;SDS011;48610;52.144;8.624;2023-11-19T04:12:54;22.55;;;11.60;;
62554;SDS011;48610;52.144;8.624;2023-11-19T04:15:55;24.15;;;12.35;;
62554;SDS011;48610;52.144;8.624;2023-11-19T04:18:55;16.60;;;10.35;;
62554;SDS011;48610;52.144;8.624;2023-11-19T04:21:56;18.42;;;10.88;;
62554;SDS011;48610;52.144;8.624;2023-11-19T04:24:57;26.85;;;9.60;;
62554;SDS011;48610;52.144;8.624;2023-11-19T04:27:57;18.40;;;9.18;;
62554;SDS011;48610;52.144;8.624;2023-11-19T04:30:58;22.02;;;9.82;;
62554;SDS011;48610;52.144;8.624;2023-11-19T04:33:59;19.58;;;9.60;;
62554;SDS011;48610;52.144;8.624;2023-11-19T04:37:00;20.75;;;10.48;;
62554;SDS011;48610;52.144;8.624;2023-11-19T04:40:04;21.38;;;10.05;;
62554;SDS011;48610;52.144;8.624;2023-11-19T04:43:05;14.75;;;9.15;;
62554;SDS011;48610;52.144;8.624;2023-11-19T04:46:07;13.68;;;8.20;;
62554;SDS011;48610;52.144;8.624;2023-11-19T04:49:10;25.58;;;10.30;;
62554;SDS011;48610;52.144;8.624;2023-11-19T04:52:11;14.30;;;8.68;;
62554;SDS011;48610;52.144;8.624;2023-11-19T04:55:12;19.42;;;8.65;;
62554;SDS011;48610;52.144;8.624;2023-11-19T04:58:15;26.00;;;9.60;;
62554;SDS011;48610;52.144;8.624;2023-11-19T05:01:15;21.40;;;8.10;;
62554;SDS011;48610;52.144;8.624;2023-11-19T05:04:17;15.20;;;6.78;;
62554;SDS011;48610;52.144;8.624;2023-11-19T05:07:18;20.48;;;5.82;;
62554;SDS011;48610;52.144;8.624;2023-11-19T05:10:19;14.13;;;5.75;;
62554;SDS011;48610;52.144;8.624;2023-11-19T05:13:19;16.02;;;5.13;;
62554;SDS011;48610;52.144;8.624;2023-11-19T05:16:20;14.45;;;5.15;;
62554;SDS011;48610;52.144;8.624;2023-11-19T05:19:21;18.40;;;4.95;;
62554;SDS011;48610;52.144;8.624;2023-11-19T05:22:21;14.68;;;4.63;;
62554;SDS011;48610;52.144;8.624;2023-11-19T05:25:22;18.77;;;5.18;;
62554;SDS011;48610;52.144;8.624;2023-11-19T05:28:22;24.58;;;5.57;;
62554;SDS011;48610;52.144;8.624;2023-11-19T05:31:24;19.55;;;4.07;;
62554;SDS011;48610;52.144;8.624;2023-11-19T05:34:25;12.35;;;4.35;;
62554;SDS011;48610;52.144;8.624;2023-11-19T05:37:26;11.65;;;4.10;;
62554;SDS011;48610;52.144;8.624;2023-11-19T05:40:26;19.58;;;4.00;;
62554;SDS011;48610;52.144;8.624;2023-11-19T05:43:28;18.90;;;3.47;;
62554;SDS011;48610;52.144;8.624;2023-11-19T05:46:28;12.13;;;3.67;;
62554;SDS011;48610;52.144;8.624;2023-11-19T05:49:29;10.43;;;3.75;;
62554;SDS011;48610;52.144;8.624;2023-11-19T05:52:30;12.50;;;4.18;;
62554;SDS011;48610;52.144;8.624;2023-11-19T05:55:33;20.77;;;5.38;;
62554;SDS011;48610;52.144;8.624;2023-11-19T05:58:35;14.15;;;4.10;;
62554;SDS011;48610;52.144;8.624;2023-11-19T06:01:36;12.00;;;3.85;;
62554;SDS011;48610;52.144;8.624;2023-11-19T06:04:36;14.38;;;4.38;;
62554;SDS011;48610;52.144;8.624;2023-11-19T06:07:37;19.27;;;4.68;;
62554;SDS011;48610;52.144;8.624;2023-11-19T06:10:39;14.35;;;4.18;;
62554;SDS011;48610;52.144;8.624;2023-11-19T06:13:40;15.95;;;4.45;;
62554;SDS011;48610;52.144;8.624;2023-11-19T06:16:41;12.27;;;4.75;;
62554;SDS011;48610;52.144;8.624;2023-11-19T06:19:41;16.83;;;4.10;;
62554;SDS011;48610;52.144;8.624;2023-11-19T06:22:42;18.08;;;4.38;;
62554;SDS011;48610;52.144;8.624;2023-11-19T06:25:44;16.75;;;4.55;;
62554;SDS011;48610;52.144;8.624;2023-11-19T06:28:44;21.63;;;4.60;;
62554;SDS011;48610;52.144;8.624;2023-11-19T06:31:46;19.02;;;4.80;;
62554;SDS011;48610;52.144;8.624;2023-11-19T06:34:50;21.45;;;4.53;;
62554;SDS011;48610;52.144;8.624;2023-11-19T06:37:50;16.33;;;4.53;;
62554;SDS011;48610;52.144;8.624;2023-11-19T06:40:51;13.82;;;4.50;;
62554;SDS011;48610;52.144;8.624;2023-11-19T06:43:51;29.27;;;5.97;;
62554;SDS011;48610;52.144;8.624;2023-11-19T06:46:52;15.85;;;4.18;;
62554;SDS011;48610;52.144;8.624;2023-11-19T06:49:56;13.65;;;4.57;;
62554;SDS011;48610;52.144;8.624;2023-11-19T06:52:58;17.02;;;4.03;;
62554;SDS011;48610;52.144;8.624;2023-11-19T06:55:58;18.95;;;4.72;;
62554;SDS011;48610;52.144;8.624;2023-11-19T06:59:00;18.23;;;4.85;;
62554;SDS011;48610;52.144;8.624;2023-11-19T07:02:01;25.02;;;5.43;;
62554;SDS011;48610;52.144;8.624;2023-11-19T07:05:01;19.55;;;4.50;;
62554;SDS011;48610;52.144;8.624;2023-11-19T07:08:05;20.88;;;4.20;;
62554;SDS011;48610;52.144;8.624;2023-11-19T07:11:07;20.45;;;4.72;;
62554;SDS011;48610;52.144;8.624;2023-11-19T07:14:10;30.05;;;4.70;;
62554;SDS011;48610;52.144;8.624;2023-11-19T07:17:11;20.60;;;5.30;;
62554;SDS011;48610;52.144;8.624;2023-11-19T07:20:12;13.73;;;3.60;;
62554;SDS011;48610;52.144;8.624;2023-11-19T07:23:15;28.95;;;5.55;;
62554;SDS011;48610;52.144;8.624;2023-11-19T07:26:18;16.63;;;3.78;;
62554;SDS011;48610;52.144;8.624;2023-11-19T07:29:19;15.18;;;4.95;;
62554;SDS011;48610;52.144;8.624;2023-11-19T07:32:19;20.85;;;5.18;;
62554;SDS011;48610;52.144;8.624;2023-11-19T07:35:20;17.13;;;5.22;;
62554;SDS011;48610;52.144;8.624;2023-11-19T07:38:20;27.88;;;5.80;;
62554;SDS011;48610;52.144;8.624;2023-11-19T07:41:21;22.52;;;4.57;;
62554;SDS011;48610;52.144;8.624;2023-11-19T07:44:22;23.75;;;4.47;;
62554;SDS011;48610;52.144;8.624;2023-11-19T07:47:22;27.55;;;5.63;;
62554;SDS011;48610;52.144;8.624;2023-11-19T07:50:23;21.13;;;4.30;;
62554;SDS011;48610;52.144;8.624;2023-11-19T07:53:25;25.45;;;4.50;;
62554;SDS011;48610;52.144;8.624;2023-11-19T07:56:25;13.88;;;3.92;;
62554;SDS011;48610;52.144;8.624;2023-11-19T07:59:26;17.48;;;4.30;;
62554;SDS011;48610;52.144;8.624;2023-11-19T08:02:27;22.45;;;5.80;;
62554;SDS011;48610;52.144;8.624;2023-11-19T08:05:28;18.85;;;4.32;;
62554;SDS011;48610;52.144;8.624;2023-11-19T08:08:28;27.95;;;4.85;;
62554;SDS011;48610;52.144;8.624;2023-11-19T08:11:29;13.93;;;3.88;;
62554;SDS011;48610;52.144;8.624;2023-11-19T08:14:30;18.77;;;4.60;;
62554;SDS011;48610;52.144;8.624;2023-11-19T08:17:31;22.95;;;4.60;;
62554;SDS011;48610;52.144;8.624;2023-11-19T08:20:31;19.55;;;3.92;;
62554;SDS011;48610;52.144;8.624;2023-11-19T08:23:32;16.02;;;3.97;;
62554;SDS011;48610;52.144;8.624;2023-11-19T08:26:32;26.17;;;4.18;;
62554;SDS011;48610;52.144;8.624;2023-11-19T08:29:33;19.52;;;4.90;;
62554;SDS011;48610;52.144;8.624;2023-11-19T08:32:34;22.42;;;5.10;;
62554;SDS011;48610;52.144;8.624;2023-11-19T08:35:35;20.65;;;4.10;;
62554;SDS011;48610;52.144;8.624;2023-11-19T08:38:36;20.95;;;4.65;;
62554;SDS011;48610;52.144;8.624;2023-11-19T08:41:36;24.55;;;4.80;;
62554;SDS011;48610;52.144;8.624;2023-11-19T08:44:39;26.25;;;4.78;;
62554;SDS011;48610;52.144;8.624;2023-11-19T08:47:43;31.42;;;5.35;;
62554;SDS011;48610;52.144;8.624;2023-11-19T08:50:45;23.60;;;4.53;;
62554;SDS011;48610;52.144;8.624;2023-11-19T08:53:45;16.85;;;3.97;;
62554;SDS011;48610;52.144;8.624;2023-11-19T08:56:46;26.42;;;5.18;;
62554;SDS011;48610;52.144;8.624;2023-11-19T08:59:47;22.88;;;3.78;;
62554;SDS011;48610;52.144;8.624;2023-11-19T09:02:47;18.90;;;5.07;;
62554;SDS011;48610;52.144;8.624;2023-11-19T09:05:48;24.73;;;4.72;;
62554;SDS011;48610;52.144;8.624;2023-11-19T09:08:48;33.55;;;4.25;;
62554;SDS011;48610;52.144;8.624;2023-11-19T09:11:49;28.55;;;5.13;;
62554;SDS011;48610;52.144;8.624;2023-11-19T09:14:50;16.15;;;4.55;;
62554;SDS011;48610;52.144;8.624;2023-11-19T09:17:50;23.48;;;5.15;;
62554;SDS011;48610;52.144;8.624;2023-11-19T09:20:51;26.60;;;5.63;;
62554;SDS011;48610;52.144;8.624;2023-11-19T09:23:51;25.15;;;6.53;;
62554;SDS011;48610;52.144;8.624;2023-11-19T09:26:54;34.22;;;7.22;;
62554;SDS011;48610;52.144;8.624;2023-11-19T09:29:56;22.33;;;5.18;;
62554;SDS011;48610;52.144;8.624;2023-11-19T09:32:58;82.53;;;17.88;;
62554;SDS011;48610;52.144;8.624;2023-11-19T09:35:59;29.08;;;5.95;;
62554;SDS011;48610;52.144;8.624;2023-11-19T09:39:00;52.83;;;10.10;;
62554;SDS011;48610;52.144;8.624;2023-11-19T09:42:02;39.30;;;10.13;;
62554;SDS011;48610;52.144;8.624;2023-11-19T09:45:03;33.00;;;7.03;;
62554;SDS011;48610;52.144;8.624;2023-11-19T09:48:12;32.58;;;9.75;;
62554;SDS011;48610;52.144;8.624;2023-11-19T09:51:12;26.15;;;5.53;;
62554;SDS011;48610;52.144;8.624;2023-11-19T09:54:13;27.73;;;7.93;;
62554;SDS011;48610;52.144;8.624;2023-11-19T09:57:14;37.47;;;10.30;;
62554;SDS011;48610;52.144;8.624;2023-11-19T10:00:17;22.58;;;5.50;;
62554;SDS011;48610;52.144;8.624;2023-11-19T10:03:21;22.70;;;4.63;;
62554;SDS011;48610;52.144;8.624;2023-11-19T10:06:23;22.38;;;4.68;;
62554;SDS011;48610;52.144;8.624;2023-11-19T10:09:26;50.08;;;16.42;;
62554;SDS011;48610;52.144;8.624;2023-11-19T10:12:27;30.52;;;8.35;;
62554;SDS011;48610;52.144;8.624;2023-11-19T10:15:28;26.63;;;8.20;;
62554;SDS011;48610;52.144;8.624;2023-11-19T10:18:37;23.80;;;5.05;;
62554;SDS011;48610;52.144;8.624;2023-11-19T10:21:38;25.83;;;5.57;;
62554;SDS011;48610;52.144;8.624;2023-11-19T10:24:38;30.60;;;4.65;;
62554;SDS011;48610;52.144;8.624;2023-11-19T10:27:40;23.88;;;6.75;;
62554;SDS011;48610;52.144;8.624;2023-11-19T10:30:41;25.25;;;6.10;;
62554;SDS011;48610;52.144;8.624;2023-11-19T10:33:42;16.88;;;4.40;;
62554;SDS011;48610;52.144;8.624;2023-11-19T10:36:45;23.00;;;5.28;;
62554;SDS011;48610;52.144;8.624;2023-11-19T10:39:52;33.47;;;5.53;;
62554;SDS011;48610;52.144;8.624;2023-11-19T10:43:01;27.15;;;5.38;;
62554;SDS011;48610;52.144;8.624;2023-11-19T10:46:09;30.52;;;5.40;;
62554;SDS011;48610;52.144;8.624;2023-11-19T10:49:11;30.80;;;4.60;;
62554;SDS011;48610;52.144;8.624;2023-11-19T10:52:12;31.52;;;4.55;;
62554;SDS011;48610;52.144;8.624;2023-11-19T10:55:19;31.70;;;5.53;;
62554;SDS011;48610;52.144;8.624;2023-11-19T10:58:24;24.02;;;5.22;;
62554;SDS011;48610;52.144;8.624;2023-11-19T11:01:37;21.05;;;4.43;;
62554;SDS011;48610;52.144;8.624;2023-11-19T11:04:44;52.60;;;11.68;;
62554;SDS011;48610;52.144;8.624;2023-11-19T11:07:47;50.13;;;9.95;;
62554;SDS011;48610;52.144;8.624;2023-11-19T11:10:56;20.50;;;5.57;;
62554;SDS011;48610;52.144;8.624;2023-11-19T11:14:01;36.85;;;7.35;;
62554;SDS011;48610;52.144;8.624;2023-11-19T11:17:03;20.77;;;4.18;;
62554;SDS011;48610;52.144;8.624;2023-11-19T11:20:08;21.48;;;4.93;;
62554;SDS011;48610;52.144;8.624;2023-11-19T11:33:29;25.63;;;4.80;;
62554;SDS011;48610;52.144;8.624;2023-11-19T11:36:51;26.17;;;4.55;;
62554;SDS011;48610;52.144;8.624;2023-11-19T11:40:13;21.15;;;5.05;;
62554;SDS011;48610;52.144;8.624;2023-11-19T11:46:54;24.80;;;4.38;;
62554;SDS011;48610;52.144;8.624;2023-11-19T11:49:55;27.05;;;5.30;;
62554;SDS011;48610;52.144;8.624;2023-11-19T11:55:58;21.02;;;5.00;;
62554;SDS011;48610;52.144;8.624;2023-11-19T11:58:59;34.25;;;5.10;;
62554;SDS011;48610;52.144;8.624;2023-11-19T12:02:00;19.75;;;4.25;;
62554;SDS011;48610;52.144;8.624;2023-11-19T12:05:03;19.52;;;4.72;;
62554;SDS011;48610;52.144;8.624;2023-11-19T12:08:05;21.55;;;4.05;;
62554;SDS011;48610;52.144;8.624;2023-11-19T12:11:08;21.08;;;4.32;;
62554;SDS011;48610;52.144;8.624;2023-11-19T12:14:09;22.73;;;4.55;;
62554;SDS011;48610;52.144;8.624;2023-11-19T12:20:49;29.95;;;5.13;;
62554;SDS011;48610;52.144;8.624;2023-11-19T12:23:50;25.33;;;4.25;;
62554;SDS011;48610;52.144;8.624;2023-11-19T12:26:51;16.90;;;4.10;;
62554;SDS011;48610;52.144;8.624;2023-11-19T12:29:54;31.60;;;4.97;;
62554;SDS011;48610;52.144;8.624;2023-11-19T12:32:57;27.65;;;4.60;;
62554;SDS011;48610;52.144;8.624;2023-11-19T12:35:57;31.60;;;5.53;;
62554;SDS011;48610;52.144;8.624;2023-11-19T12:38:58;24.90;;;4.65;;
62554;SDS011;48610;52.144;8.624;2023-11-19T12:42:00;20.10;;;4.10;;
62554;SDS011;48610;52.144;8.624;2023-11-19T12:45:01;25.35;;;4.50;;
62554;SDS011;48610;52.144;8.624;2023-11-19T12:48:05;34.60;;;5.35;;
62554;SDS011;48610;52.144;8.624;2023-11-19T12:51:06;33.92;;;4.72;;
62554;SDS011;48610;52.144;8.624;2023-11-19T12:54:07;24.52;;;5.57;;
62554;SDS011;48610;52.144;8.624;2023-11-19T12:57:08;25.75;;;4.72;;
62554;SDS011;48610;52.144;8.624;2023-11-19T13:00:18;21.48;;;5.10;;
62554;SDS011;48610;52.144;8.624;2023-11-19T13:03:35;23.58;;;5.13;;
62554;SDS011;48610;52.144;8.624;2023-11-19T13:06:44;26.70;;;5.18;;
62554;SDS011;48610;52.144;8.624;2023-11-19T13:09:46;21.95;;;4.60;;
62554;SDS011;48610;52.144;8.624;2023-11-19T13:12:59;23.67;;;4.18;;
62554;SDS011;48610;52.144;8.624;2023-11-19T13:16:04;21.48;;;4.60;;
62554;SDS011;48610;52.144;8.624;2023-11-19T13:19:05;20.92;;;4.72;;
62554;SDS011;48610;52.144;8.624;2023-11-19T13:22:06;18.52;;;4.20;;
62554;SDS011;48610;52.144;8.624;2023-11-19T13:25:07;18.58;;;4.22;;
62554;SDS011;48610;52.144;8.624;2023-11-19T13:28:07;21.40;;;4.57;;
62554;SDS011;48610;52.144;8.624;2023-11-19T13:31:08;15.02;;;3.83;;
62554;SDS011;48610;52.144;8.624;2023-11-19T13:34:10;30.05;;;4.70;;
62554;SDS011;48610;52.144;8.624;2023-11-19T13:37:11;33.58;;;4.95;;
62554;SDS011;48610;52.144;8.624;2023-11-19T13:40:11;19.13;;;4.15;;
62554;SDS011;48610;52.144;8.624;2023-11-19T13:43:16;15.70;;;3.80;;
62554;SDS011;48610;52.144;8.624;2023-11-19T13:46:16;25.15;;;4.60;;
62554;SDS011;48610;52.144;8.624;2023-11-19T13:49:17;28.75;;;4.55;;
62554;SDS011;48610;52.144;8.624;2023-11-19T13:52:19;20.13;;;4.60;;
62554;SDS011;48610;52.144;8.624;2023-11-19T13:55:20;24.15;;;4.80;;
62554;SDS011;48610;52.144;8.624;2023-11-19T13:58:22;18.13;;;4.72;;
62554;SDS011;48610;52.144;8.624;2023-11-19T14:01:23;18.80;;;4.53;;
62554;SDS011;48610;52.144;8.624;2023-11-19T14:04:23;22.25;;;3.67;;
62554;SDS011;48610;52.144;8.624;2023-11-19T14:07:25;14.57;;;4.15;;
62554;SDS011;48610;52.144;8.624;2023-11-19T14:10:25;23.08;;;4.22;;
62554;SDS011;48610;52.144;8.624;2023-11-19T14:13:26;21.70;;;4.28;;
62554;SDS011;48610;52.144;8.624;2023-11-19T14:16:27;13.40;;;3.47;;
62554;SDS011;48610;52.144;8.624;2023-11-19T14:19:27;16.15;;;4.05;;
62554;SDS011;48610;52.144;8.624;2023-11-19T14:22:28;18.40;;;4.10;;
62554;SDS011;48610;52.144;8.624;2023-11-19T14:25:30;17.77;;;4.63;;
62554;SDS011;48610;52.144;8.624;2023-11-19T14:28:31;20.92;;;3.75;;
62554;SDS011;48610;52.144;8.624;2023-11-19T14:31:31;17.30;;;4.30;;
62554;SDS011;48610;52.144;8.624;2023-11-19T14:34:32;18.10;;;3.38;;
62554;SDS011;48610;52.144;8.624;2023-11-19T14:37:33;15.27;;;3.78;;
62554;SDS011;48610;52.144;8.624;2023-11-19T14:40:33;22.15;;;3.80;;
62554;SDS011;48610;52.144;8.624;2023-11-19T14:43:34;17.67;;;3.90;;
62554;SDS011;48610;52.144;8.624;2023-11-19T14:46:35;24.30;;;4.07;;
62554;SDS011;48610;52.144;8.624;2023-11-19T14:49:36;18.60;;;3.80;;
62554;SDS011;48610;52.144;8.624;2023-11-19T14:52:39;22.60;;;4.05;;
62554;SDS011;48610;52.144;8.624;2023-11-19T14:55:40;16.52;;;4.05;;
62554;SDS011;48610;52.144;8.624;2023-11-19T14:58:40;13.85;;;3.60;;
62554;SDS011;48610;52.144;8.624;2023-11-19T15:01:41;18.85;;;3.72;;
62554;SDS011;48610;52.144;8.624;2023-11-19T15:04:42;10.18;;;3.38;;
62554;SDS011;48610;52.144;8.624;2023-11-19T15:07:44;13.38;;;3.92;;
62554;SDS011;48610;52.144;8.624;2023-11-19T15:10:44;23.92;;;3.45;;
62554;SDS011;48610;52.144;8.624;2023-11-19T15:13:46;14.82;;;3.55;;
62554;SDS011;48610;52.144;8.624;2023-11-19T15:16:47;21.38;;;4.53;;
62554;SDS011;48610;52.144;8.624;2023-11-19T15:19:51;17.83;;;4.05;;
62554;SDS011;48610;52.144;8.624;2023-11-19T15:22:51;9.65;;;2.53;;
62554;SDS011;48610;52.144;8.624;2023-11-19T15:25:52;16.00;;;3.15;;
62554;SDS011;48610;52.144;8.624;2023-11-19T15:28:52;13.20;;;4.10;;
62554;SDS011;48610;52.144;8.624;2023-11-19T15:31:57;13.05;;;3.90;;
62554;SDS011;48610;52.144;8.624;2023-11-19T15:34:58;10.90;;;3.53;;
62554;SDS011;48610;52.144;8.624;2023-11-19T15:37:59;18.80;;;3.88;;
62554;SDS011;48610;52.144;8.624;2023-11-19T15:40:59;25.83;;;3.88;;
62554;SDS011;48610;52.144;8.624;2023-11-19T15:44:00;8.23;;;3.60;;
62554;SDS011;48610;52.144;8.624;2023-11-19T15:47:03;20.10;;;3.47;;
62554;SDS011;48610;52.144;8.624;2023-11-19T15:50:04;18.92;;;3.05;;
62554;SDS011;48610;52.144;8.624;2023-11-19T15:53:07;14.65;;;3.90;;
62554;SDS011;48610;52.144;8.624;2023-11-19T15:56:07;17.20;;;3.22;;
62554;SDS011;48610;52.144;8.624;2023-11-19T15:59:08;16.25;;;3.17;;
62554;SDS011;48610;52.144;8.624;2023-11-19T16:02:08;17.35;;;3.55;;
62554;SDS011;48610;52.144;8.624;2023-11-19T16:05:09;17.02;;;4.10;;
62554;SDS011;48610;52.144;8.624;2023-11-19T16:08:10;16.52;;;3.35;;
62554;SDS011;48610;52.144;8.624;2023-11-19T16:11:11;16.60;;;3.38;;
62554;SDS011;48610;52.144;8.624;2023-11-19T16:14:13;18.30;;;3.63;;
62554;SDS011;48610;52.144;8.624;2023-11-19T16:17:14;15.80;;;3.45;;
62554;SDS011;48610;52.144;8.624;2023-11-19T16:20:15;11.75;;;3.65;;
62554;SDS011;48610;52.144;8.624;2023-11-19T16:23:16;13.93;;;3.72;;
62554;SDS011;48610;52.144;8.624;2023-11-19T16:26:19;18.55;;;3.95;;
62554;SDS011;48610;52.144;8.624;2023-11-19T16:29:20;14.00;;;3.80;;
62554;SDS011;48610;52.144;8.624;2023-11-19T16:32:20;14.88;;;3.97;;
62554;SDS011;48610;52.144;8.624;2023-11-19T16:35:22;11.20;;;3.53;;
62554;SDS011;48610;52.144;8.624;2023-11-19T16:38:23;21.25;;;5.90;;
62554;SDS011;48610;52.144;8.624;2023-11-19T16:41:23;12.23;;;3.90;;
62554;SDS011;48610;52.144;8.624;2023-11-19T16:44:24;18.75;;;3.83;;
62554;SDS011;48610;52.144;8.624;2023-11-19T16:47:25;14.45;;;3.85;;
62554;SDS011;48610;52.144;8.624;2023-11-19T16:50:27;16.67;;;4.47;;
62554;SDS011;48610;52.144;8.624;2023-11-19T16:53:28;18.50;;;4.57;;
62554;SDS011;48610;52.144;8.624;2023-11-19T16:56:29;14.18;;;3.67;;
62554;SDS011;48610;52.144;8.624;2023-11-19T16:59:32;10.80;;;3.95;;
62554;SDS011;48610;52.144;8.624;2023-11-19T17:02:33;10.40;;;3.88;;
62554;SDS011;48610;52.144;8.624;2023-11-19T17:05:33;18.00;;;4.38;;
62554;SDS011;48610;52.144;8.624;2023-11-19T17:08:35;14.45;;;3.58;;
62554;SDS011;48610;52.144;8.624;2023-11-19T17:11:37;10.00;;;4.22;;
62554;SDS011;48610;52.144;8.624;2023-11-19T17:14:39;19.20;;;3.65;;
62554;SDS011;48610;52.144;8.624;2023-11-19T17:17:40;28.88;;;5.13;;
62554;SDS011;48610;52.144;8.624;2023-11-19T17:20:40;17.50;;;3.72;;
62554;SDS011;48610;52.144;8.624;2023-11-19T17:23:41;17.63;;;5.45;;
62554;SDS011;48610;52.144;8.624;2023-11-19T17:26:42;19.13;;;4.15;;
62554;SDS011;48610;52.144;8.624;2023-11-19T17:29:43;16.88;;;4.68;;
62554;SDS011;48610;52.144;8.624;2023-11-19T17:32:44;16.48;;;4.20;;
62554;SDS011;48610;52.144;8.624;2023-11-19T17:35:44;17.30;;;3.85;;
62554;SDS011;48610;52.144;8.624;2023-11-19T17:38:45;18.20;;;3.88;;
62554;SDS011;48610;52.144;8.624;2023-11-19T17:41:46;18.98;;;4.03;;
62554;SDS011;48610;52.144;8.624;2023-11-19T17:44:46;18.33;;;4.15;;
62554;SDS011;48610;52.144;8.624;2023-11-19T17:47:47;12.35;;;3.95;;
62554;SDS011;48610;52.144;8.624;2023-11-19T17:50:49;12.77;;;4.43;;
62554;SDS011;48610;52.144;8.624;2023-11-19T17:53:50;11.90;;;4.00;;
62554;SDS011;48610;52.144;8.624;2023-11-19T17:56:50;15.23;;;3.60;;
62554;SDS011;48610;52.144;8.624;2023-11-19T17:59:51;8.25;;;3.67;;
62554;SDS011;48610;52.144;8.624;2023-11-19T18:02:52;14.73;;;3.40;;
62554;SDS011;48610;52.144;8.624;2023-11-19T18:05:53;14.73;;;4.05;;
62554;SDS011;48610;52.144;8.624;2023-11-19T18:08:53;18.05;;;4.50;;
62554;SDS011;48610;52.144;8.624;2023-11-19T18:11:54;13.95;;;3.22;;
62554;SDS011;48610;52.144;8.624;2023-11-19T18:14:54;15.77;;;3.72;;
62554;SDS011;48610;52.144;8.624;2023-11-19T18:17:55;10.23;;;3.45;;
62554;SDS011;48610;52.144;8.624;2023-11-19T18:20:56;20.98;;;3.53;;